Time,TemperatureF,DewpointF,PressureIn,WindDirection,WindDirectionDegrees,WindSpeedMPH,WindSpeedGustMPH,Humidity,HourlyPrecipIn,Conditions,Clouds,dailyrainin,SoftwareType,DateUTC
2013-01-10 00:02:00,39.2,2.6,25.34,South,181,4.0,4.9,21,0.00,,---,0.00,VWS V14.00,2013-01-10 07:02:00,
2013-01-10 00:07:00,41.2,4.2,25.34,SSE,167,4.9,5.8,21,0.00,,---,0.00,VWS V14.00,2013-01-10 07:07:00,
2013-01-10 00:12:00,42.4,5.3,25.34,South,172,3.6,4.0,21,0.00,,---,0.00,VWS V14.00,2013-01-10 07:12:00,
2013-01-10 00:17:00,42.6,5.4,25.34,SSW,196,3.6,4.0,21,0.00,,---,0.00,VWS V14.00,2013-01-10 07:17:00,
2013-01-10 00:22:00,42.3,5.1,25.34,SSW,195,4.5,4.5,21,0.00,,---,0.00,VWS V14.00,2013-01-10 07:22:00,
2013-01-10 00:27:00,41.7,4.7,25.34,SSW,195,0.0,0.0,21,0.00,,---,0.00,VWS V14.00,2013-01-10 07:27:00,
2013-01-10 00:32:00,41.5,4.5,25.34,SSW,195,0.0,0.0,21,0.00,,---,0.00,VWS V14.00,2013-01-10 07:32:00,
2013-01-10 00:38:00,41.4,4.4,25.34,SSW,195,0.0,0.0,21,0.00,,---,0.00,VWS V14.00,2013-01-10 07:38:00,
2013-01-10 00:43:00,40.6,3.8,25.34,SSW,194,3.6,4.9,21,0.00,,---,0.00,VWS V14.00,2013-01-10 07:43:00,
2013-01-10 00:48:00,39.2,2.6,25.34,SSW,194,0.0,0.0,21,0.00,,---,0.00,VWS V14.00,2013-01-10 07:48:00,
2013-01-10 00:53:00,37.4,1.0,25.34,SSW,194,0.0,0.0,21,0.00,,---,0.00,VWS V14.00,2013-01-10 07:53:00,
2013-01-10 00:58:00,36.1,1.0,25.34,SSW,195,0.0,0.0,22,0.00,,---,0.00,VWS V14.00,2013-01-10 07:58:00,
2013-01-10 01:03:00,35.4,0.4,25.34,SSW,196,0.0,0.0,22,0.00,,---,0.00,VWS V14.00,2013-01-10 08:03:00,
2013-01-10 01:08:00,34.9,-0.1,25.34,West,275,0.0,0.0,22,0.00,,---,0.00,VWS V14.00,2013-01-10 08:08:00,
2013-01-10 01:13:00,35.1,0.1,25.34,West,275,0.0,0.0,22,0.00,,---,0.00,VWS V14.00,2013-01-10 08:13:00,
2013-01-10 01:18:00,35.4,0.4,25.34,West,270,4.5,5.4,22,0.00,,---,0.00,VWS V14.00,2013-01-10 08:18:00,
2013-01-10 01:23:00,34.3,-0.6,25.34,West,270,0.0,0.0,22,0.00,,---,0.00,VWS V14.00,2013-01-10 08:23:00,
2013-01-10 01:29:00,33.3,-0.5,25.34,West,270,0.0,0.0,23,0.00,,---,0.00,VWS V14.00,2013-01-10 08:29:00,
2013-01-10 01:34:00,32.5,-1.1,25.34,West,270,0.0,0.0,23,0.00,,---,0.00,VWS V14.00,2013-01-10 08:34:00,
2013-01-10 01:39:00,32.0,-1.6,25.34,West,275,3.6,4.9,23,0.00,,---,0.00,VWS V14.00,2013-01-10 08:39:00,
2013-01-10 01:44:00,31.6,-1.9,25.34,West,276,5.4,5.4,23,0.00,,---,0.00,VWS V14.00,2013-01-10 08:44:00,
2013-01-10 01:49:00,31.6,-1.9,25.34,WNW,301,5.4,5.4,23,0.00,,---,0.00,VWS V14.00,2013-01-10 08:49:00,
2013-01-10 01:54:00,32.5,-1.1,25.34,West,281,3.6,4.0,23,0.00,,---,0.00,VWS V14.00,2013-01-10 08:54:00,
2013-01-10 01:59:00,33.1,-0.7,25.34,West,280,4.0,4.0,23,0.00,,---,0.00,VWS V14.00,2013-01-10 08:59:00,
2013-01-10 02:04:00,33.4,-0.4,25.34,West,281,2.7,2.7,23,0.00,,---,0.00,VWS V14.00,2013-01-10 09:04:00,
2013-01-10 02:09:00,33.8,-1.0,25.34,West,280,0.0,2.2,22,0.00,,---,0.00,VWS V14.00,2013-01-10 09:09:00,
2013-01-10 02:15:00,33.8,-1.0,25.34,West,280,0.0,0.0,22,0.00,,---,0.00,VWS V14.00,2013-01-10 09:15:00,
2013-01-10 02:20:00,33.6,-0.2,25.34,West,280,0.0,0.0,23,0.00,,---,0.00,VWS V14.00,2013-01-10 09:20:00,
2013-01-10 02:25:00,33.4,-0.4,25.34,West,280,0.0,0.0,23,0.00,,---,0.00,VWS V14.00,2013-01-10 09:25:00,
2013-01-10 02:30:00,33.3,-0.5,25.34,West,280,0.0,0.0,23,0.00,,---,0.00,VWS V14.00,2013-01-10 09:30:00,
2013-01-10 02:35:00,33.1,-0.7,25.34,West,280,0.0,0.0,23,0.00,,---,0.00,VWS V14.00,2013-01-10 09:35:00,
2013-01-10 02:40:00,33.1,-0.7,25.34,West,280,0.0,0.0,23,0.00,,---,0.00,VWS V14.00,2013-01-10 09:40:00,
2013-01-10 02:45:00,32.7,-1.0,25.34,West,280,0.0,0.0,23,0.00,,---,0.00,VWS V14.00,2013-01-10 09:45:00,
2013-01-10 02:50:00,31.6,-1.9,25.34,West,280,0.0,0.0,23,0.00,,---,0.00,VWS V14.00,2013-01-10 09:50:00,
2013-01-10 02:55:00,30.6,-2.8,25.34,West,280,0.0,0.0,23,0.00,,---,0.00,VWS V14.00,2013-01-10 09:55:00,
2013-01-10 03:01:00,29.8,-3.4,25.34,West,280,0.0,0.0,23,0.00,,---,0.00,VWS V14.00,2013-01-10 10:01:00,
2013-01-10 03:06:00,29.5,-3.7,25.34,West,279,4.0,4.0,23,0.00,,---,0.00,VWS V14.00,2013-01-10 10:06:00,
2013-01-10 03:11:00,29.1,-4.1,25.34,WSW,248,5.4,5.8,23,0.00,,---,0.00,VWS V14.00,2013-01-10 10:11:00,
2013-01-10 03:16:00,29.1,-4.1,25.34,WSW,249,4.9,4.9,23,0.00,,---,0.00,VWS V14.00,2013-01-10 10:16:00,
2013-01-10 03:21:00,28.9,-4.2,25.34,WSW,249,4.0,4.5,23,0.00,,---,0.00,VWS V14.00,2013-01-10 10:21:00,
2013-01-10 03:28:00,28.4,-4.7,25.34,WSW,249,4.0,4.0,23,0.00,,---,0.00,VWS V14.00,2013-01-10 10:28:00,
2013-01-10 03:34:00,28.4,-4.7,25.34,WSW,249,2.7,3.6,23,0.00,,---,0.00,VWS V14.00,2013-01-10 10:34:00,
2013-01-10 03:39:00,28.6,-4.5,25.34,WSW,249,0.0,0.0,23,0.00,,---,0.00,VWS V14.00,2013-01-10 10:39:00,
2013-01-10 03:44:00,28.2,-4.8,25.34,WSW,249,2.7,3.1,23,0.00,,---,0.00,VWS V14.00,2013-01-10 10:44:00,
2013-01-10 03:49:00,28.4,-4.7,25.34,WSW,249,3.1,3.1,23,0.00,,---,0.00,VWS V14.00,2013-01-10 10:49:00,
2013-01-10 03:54:00,29.3,-3.9,25.31,WSW,249,4.0,4.0,23,0.00,,---,0.00,VWS V14.00,2013-01-10 10:54:00,
2013-01-10 03:59:00,29.1,-4.1,25.31,WSW,249,3.1,3.1,23,0.00,,---,0.00,VWS V14.00,2013-01-10 10:59:00,
2013-01-10 04:04:00,28.9,-4.2,25.31,WSW,249,0.0,0.0,23,0.00,,---,0.00,VWS V14.00,2013-01-10 11:04:00,
2013-01-10 04:09:00,28.4,-4.7,25.31,WSW,249,0.0,0.0,23,0.00,,---,0.00,VWS V14.00,2013-01-10 11:09:00,
2013-01-10 04:15:00,28.4,-2.1,25.31,WSW,249,0.0,0.0,26,0.00,,---,0.00,VWS V14.00,2013-01-10 11:15:00,
2013-01-10 04:20:00,27.9,-2.6,25.31,WSW,249,0.0,0.0,26,0.00,,---,0.00,VWS V14.00,2013-01-10 11:20:00,
2013-01-10 04:25:00,27.3,-3.0,25.31,WSW,249,3.1,3.1,26,0.00,,---,0.00,VWS V14.00,2013-01-10 11:25:00,
2013-01-10 04:30:00,27.3,-3.0,25.31,WSW,249,3.1,3.1,26,0.00,,---,0.00,VWS V14.00,2013-01-10 11:30:00,
2013-01-10 04:35:00,27.1,-3.2,25.31,WSW,249,0.0,0.0,26,0.00,,---,0.00,VWS V14.00,2013-01-10 11:35:00,
2013-01-10 04:40:00,26.6,-3.7,25.31,WSW,249,0.0,0.0,26,0.00,,---,0.00,VWS V14.00,2013-01-10 11:40:00,
2013-01-10 04:45:00,26.2,-4.0,25.31,WSW,249,2.7,2.7,26,0.00,,---,0.00,VWS V14.00,2013-01-10 11:45:00,
2013-01-10 04:50:00,26.2,-1.7,25.31,WSW,249,2.7,3.1,29,0.00,,---,0.00,VWS V14.00,2013-01-10 11:50:00,
2013-01-10 04:55:00,26.4,-0.1,25.31,WSW,249,4.9,4.9,31,0.00,,---,0.00,VWS V14.00,2013-01-10 11:55:00,
2013-01-10 05:01:00,27.1,0.5,25.31,WSW,249,0.0,2.2,31,0.00,,---,0.00,VWS V14.00,2013-01-10 12:01:00,
2013-01-10 05:06:00,27.1,-1.6,25.31,WSW,249,0.0,0.0,28,0.00,,---,0.00,VWS V14.00,2013-01-10 12:06:00,
2013-01-10 05:11:00,27.1,-1.6,25.31,WSW,249,0.0,0.0,28,0.00,,---,0.00,VWS V14.00,2013-01-10 12:11:00,
2013-01-10 05:16:00,27.0,-1.8,25.31,WSW,249,0.0,0.0,28,0.00,,---,0.00,VWS V14.00,2013-01-10 12:16:00,
2013-01-10 05:21:00,26.8,0.2,25.31,WSW,249,0.0,0.0,31,0.00,,---,0.00,VWS V14.00,2013-01-10 12:21:00,
2013-01-10 05:26:00,27.3,0.7,25.31,WSW,249,0.0,0.0,31,0.00,,---,0.00,VWS V14.00,2013-01-10 12:26:00,
2013-01-10 05:31:00,27.7,-1.2,25.31,WSW,249,0.0,0.0,28,0.00,,---,0.00,VWS V14.00,2013-01-10 12:31:00,
2013-01-10 05:36:00,27.7,1.0,25.31,WSW,249,0.0,0.0,31,0.00,,---,0.00,VWS V14.00,2013-01-10 12:36:00,
2013-01-10 05:41:00,27.9,1.2,25.31,WSW,249,0.0,0.0,31,0.00,,---,0.00,VWS V14.00,2013-01-10 12:41:00,
2013-01-10 05:46:00,28.6,1.1,25.31,WSW,249,4.0,4.5,30,0.00,,---,0.00,VWS V14.00,2013-01-10 12:46:00,
2013-01-10 05:52:00,28.9,-0.1,25.31,WSW,249,4.0,4.0,28,0.00,,---,0.00,VWS V14.00,2013-01-10 12:52:00,
2013-01-10 05:57:00,28.9,-0.1,25.31,WSW,249,3.1,3.1,28,0.00,,---,0.00,VWS V14.00,2013-01-10 12:57:00,
2013-01-10 06:02:00,28.9,-0.1,25.31,WSW,249,0.0,0.0,28,0.00,,---,0.00,VWS V14.00,2013-01-10 13:02:00,
2013-01-10 06:07:00,28.6,-0.4,25.31,WSW,249,0.0,0.0,28,0.00,,---,0.00,VWS V14.00,2013-01-10 13:07:00,
2013-01-10 06:12:00,28.6,1.1,25.31,WSW,249,0.0,0.0,30,0.00,,---,0.00,VWS V14.00,2013-01-10 13:12:00,
2013-01-10 06:17:00,28.6,1.1,25.31,WSW,249,0.0,0.0,30,0.00,,---,0.00,VWS V14.00,2013-01-10 13:17:00,
2013-01-10 06:22:00,28.0,1.3,25.31,WSW,249,0.0,0.0,31,0.00,,---,0.00,VWS V14.00,2013-01-10 13:22:00,
2013-01-10 06:27:00,27.7,1.0,25.31,WSW,249,4.0,4.0,31,0.00,,---,0.00,VWS V14.00,2013-01-10 13:27:00,
2013-01-10 06:32:00,28.2,2.2,25.31,WSW,249,5.8,5.8,32,0.00,,---,0.00,VWS V14.00,2013-01-10 13:32:00,
2013-01-10 06:38:00,28.9,2.1,25.31,WSW,249,3.1,4.0,31,0.00,,---,0.00,VWS V14.00,2013-01-10 13:38:00,
2013-01-10 06:43:00,29.3,2.4,25.31,WSW,249,3.1,3.6,31,0.00,,---,0.00,VWS V14.00,2013-01-10 13:43:00,
2013-01-10 06:48:00,29.3,2.4,25.31,WSW,249,5.4,5.4,31,0.00,,---,0.00,VWS V14.00,2013-01-10 13:48:00,
2013-01-10 06:53:00,29.1,2.3,25.31,WSW,249,2.7,4.0,31,0.00,,---,0.00,VWS V14.00,2013-01-10 13:53:00,
2013-01-10 06:58:00,29.1,2.3,25.31,WSW,249,0.0,2.7,31,0.00,,---,0.00,VWS V14.00,2013-01-10 13:58:00,
2013-01-10 07:03:00,28.9,2.1,25.31,WSW,249,0.0,0.0,31,0.00,,---,0.00,VWS V14.00,2013-01-10 14:03:00,
2013-01-10 07:08:00,28.8,2.0,25.31,WSW,249,3.6,4.0,31,0.00,,---,0.00,VWS V14.00,2013-01-10 14:08:00,
2013-01-10 07:13:00,28.6,2.5,25.31,WSW,249,4.9,5.8,32,0.00,,---,0.00,VWS V14.00,2013-01-10 14:13:00,
2013-01-10 07:18:00,29.1,3.0,25.31,WSW,249,3.6,4.9,32,0.00,,---,0.00,VWS V14.00,2013-01-10 14:18:00,
2013-01-10 07:24:00,29.5,3.3,25.31,WSW,249,3.1,3.6,32,0.00,,---,0.00,VWS V14.00,2013-01-10 14:24:00,
2013-01-10 07:29:00,29.8,2.9,25.31,WSW,249,4.0,4.0,31,0.00,,---,0.00,VWS V14.00,2013-01-10 14:29:00,
2013-01-10 07:34:00,30.4,3.4,25.31,WSW,249,3.6,3.6,31,0.00,,---,0.00,VWS V14.00,2013-01-10 14:34:00,
2013-01-10 07:39:00,30.9,3.8,25.31,WSW,249,0.0,0.0,31,0.00,,---,0.00,VWS V14.00,2013-01-10 14:39:00,
2013-01-10 07:44:00,31.8,4.6,25.31,WSW,249,0.0,2.2,31,0.00,,---,0.00,VWS V14.00,2013-01-10 14:44:00,
2013-01-10 07:49:00,33.1,5.0,25.31,WSW,249,3.1,3.6,30,0.00,,---,0.00,VWS V14.00,2013-01-10 14:49:00,
2013-01-10 07:54:00,34.2,6.0,25.31,WSW,249,0.0,0.0,30,0.00,,---,0.00,VWS V14.00,2013-01-10 14:54:00,
2013-01-10 07:59:00,35.4,7.1,25.31,WSW,249,0.0,0.0,30,0.00,,---,0.00,VWS V14.00,2013-01-10 14:59:00,
2013-01-10 08:04:00,36.7,7.4,25.31,WSW,249,0.0,0.0,29,0.00,,---,0.00,VWS V14.00,2013-01-10 15:04:00,
2013-01-10 08:09:00,38.1,6.3,25.34,WSW,249,2.7,3.6,26,0.00,,---,0.00,VWS V14.00,2013-01-10 15:09:00,
2013-01-10 08:15:00,38.5,4.8,25.34,North,353,0.0,0.0,24,0.00,,---,0.00,VWS V14.00,2013-01-10 15:15:00,
2013-01-10 08:20:00,38.7,5.0,25.34,NE,43,0.0,0.0,24,0.00,,---,0.00,VWS V14.00,2013-01-10 15:20:00,
2013-01-10 08:25:00,39.0,5.3,25.34,ENE,67,0.0,0.0,24,0.00,,---,0.00,VWS V14.00,2013-01-10 15:25:00,
2013-01-10 08:30:00,39.4,4.7,25.34,NNE,12,3.6,4.0,23,0.00,,---,0.00,VWS V14.00,2013-01-10 15:30:00,
2013-01-10 08:35:00,39.7,5.0,25.34,NNE,13,0.0,0.0,23,0.00,,---,0.00,VWS V14.00,2013-01-10 15:35:00,
2013-01-10 08:40:00,39.2,4.5,25.34,NNE,13,0.0,0.0,23,0.00,,---,0.00,VWS V14.00,2013-01-10 15:40:00,
2013-01-10 08:45:00,38.8,5.2,25.34,NNE,13,0.0,0.0,24,0.00,,---,0.00,VWS V14.00,2013-01-10 15:45:00,
2013-01-10 08:51:00,38.7,5.0,25.34,NNE,13,0.0,0.0,24,0.00,,---,0.00,VWS V14.00,2013-01-10 15:51:00,
2013-01-10 08:56:00,38.3,4.7,25.34,NNE,13,0.0,0.0,24,0.00,,---,0.00,VWS V14.00,2013-01-10 15:56:00,
2013-01-10 09:01:00,37.9,4.4,25.34,NNE,13,0.0,0.0,24,0.00,,---,0.00,VWS V14.00,2013-01-10 16:01:00,
2013-01-10 09:06:00,37.9,4.4,25.34,NNE,13,0.0,0.0,24,0.00,,---,0.00,VWS V14.00,2013-01-10 16:06:00,
2013-01-10 09:11:00,37.9,4.4,25.34,NNE,13,0.0,0.0,24,0.00,,---,0.00,VWS V14.00,2013-01-10 16:11:00,
2013-01-10 09:16:00,38.1,4.5,25.34,North,357,0.0,0.0,24,0.00,,---,0.00,VWS V14.00,2013-01-10 16:16:00,
2013-01-10 09:21:00,38.7,5.0,25.34,NW,305,2.7,2.7,24,0.00,,---,0.00,VWS V14.00,2013-01-10 16:21:00,
2013-01-10 09:26:00,39.4,4.7,25.34,NW,305,0.0,0.0,23,0.00,,---,0.00,VWS V14.00,2013-01-10 16:26:00,
2013-01-10 09:32:00,40.3,5.4,25.34,NW,305,0.0,0.0,23,0.00,,---,0.00,VWS V14.00,2013-01-10 16:32:00,
2013-01-10 09:37:00,41.0,6.1,25.34,NW,305,0.0,0.0,23,0.00,,---,0.00,VWS V14.00,2013-01-10 16:37:00,
2013-01-10 09:42:00,41.4,6.4,25.31,NW,305,0.0,0.0,23,0.00,,---,0.00,VWS V14.00,2013-01-10 16:42:00,
2013-01-10 09:47:00,41.7,6.7,25.31,NW,304,4.0,4.0,23,0.00,,---,0.00,VWS V14.00,2013-01-10 16:47:00,
2013-01-10 09:52:00,42.3,7.1,25.31,West,263,0.0,0.0,23,0.00,,---,0.00,VWS V14.00,2013-01-10 16:52:00,
2013-01-10 09:57:00,42.8,7.6,25.31,SW,234,0.0,0.0,23,0.00,,---,0.00,VWS V14.00,2013-01-10 16:57:00,
2013-01-10 10:02:00,43.2,7.9,25.31,SW,234,0.0,0.0,23,0.00,,---,0.00,VWS V14.00,2013-01-10 17:02:00,
2013-01-10 10:07:00,43.3,8.0,25.31,SW,233,0.0,0.0,23,0.00,,---,0.00,VWS V14.00,2013-01-10 17:07:00,
2013-01-10 10:12:00,43.5,8.2,25.31,SW,233,0.0,0.0,23,0.00,,---,0.00,VWS V14.00,2013-01-10 17:12:00,
2013-01-10 10:18:00,43.5,8.2,25.31,SW,233,0.0,0.0,23,0.00,,---,0.00,VWS V14.00,2013-01-10 17:18:00,
2013-01-10 10:23:00,43.7,8.3,25.31,SW,233,0.0,0.0,23,0.00,,---,0.00,VWS V14.00,2013-01-10 17:23:00,
2013-01-10 10:28:00,44.1,8.6,25.31,SW,234,0.0,0.0,23,0.00,,---,0.00,VWS V14.00,2013-01-10 17:28:00,
2013-01-10 10:33:00,43.9,8.5,25.31,NE,34,3.1,5.8,23,0.00,,---,0.00,VWS V14.00,2013-01-10 17:33:00,
2013-01-10 10:38:00,43.5,8.2,25.31,North,357,0.0,0.0,23,0.00,,---,0.00,VWS V14.00,2013-01-10 17:38:00,
2013-01-10 10:43:00,43.5,8.2,25.31,North,357,0.0,0.0,23,0.00,,---,0.00,VWS V14.00,2013-01-10 17:43:00,
2013-01-10 10:48:00,44.1,8.6,25.31,ESE,113,4.0,4.9,23,0.00,,---,0.00,VWS V14.00,2013-01-10 17:48:00,
2013-01-10 10:53:00,45.1,8.6,25.31,ESE,102,3.6,4.0,22,0.00,,---,0.00,VWS V14.00,2013-01-10 17:53:00,
2013-01-10 10:58:00,46.0,9.3,25.31,ESE,104,4.0,6.3,22,0.00,,---,0.00,VWS V14.00,2013-01-10 17:58:00,
2013-01-10 11:03:00,46.8,9.9,25.31,ENE,64,4.0,4.0,22,0.00,,---,0.00,VWS V14.00,2013-01-10 18:03:00,
2013-01-10 11:09:00,47.7,10.7,25.31,ESE,104,0.0,0.0,22,0.00,,---,0.00,VWS V14.00,2013-01-10 18:09:00,
2013-01-10 11:14:00,48.4,10.3,25.31,ESE,104,0.0,0.0,21,0.00,,---,0.00,VWS V14.00,2013-01-10 18:14:00,
2013-01-10 11:19:00,49.3,11.0,25.31,NNE,28,0.0,0.0,21,0.00,,---,0.00,VWS V14.00,2013-01-10 18:19:00,
2013-01-10 11:24:00,50.7,12.2,25.28,ESE,116,3.6,7.6,21,0.00,,---,0.00,VWS V14.00,2013-01-10 18:24:00,
2013-01-10 11:29:00,51.3,12.7,25.28,SE,129,5.8,10.1,21,0.00,,---,0.00,VWS V14.00,2013-01-10 18:29:00,
2013-01-10 11:34:00,51.4,12.8,25.28,ESE,112,5.4,6.3,21,0.00,,---,0.00,VWS V14.00,2013-01-10 18:34:00,
2013-01-10 11:39:00,51.6,13.0,25.25,SE,131,3.6,4.9,21,0.00,,---,0.00,VWS V14.00,2013-01-10 18:39:00,
2013-01-10 11:44:00,52.3,13.6,25.25,East,79,0.0,0.0,21,0.00,,---,0.00,VWS V14.00,2013-01-10 18:44:00,
2013-01-10 11:49:00,54.0,13.8,25.25,East,79,0.0,0.0,20,0.00,,---,0.00,VWS V14.00,2013-01-10 18:49:00,
2013-01-10 11:54:00,55.8,15.3,25.25,ESE,112,0.0,0.0,20,0.00,,---,0.00,VWS V14.00,2013-01-10 18:54:00,
2013-01-10 12:00:00,57.0,16.4,25.25,ESE,111,0.0,0.0,20,0.00,,---,0.00,VWS V14.00,2013-01-10 19:00:00,
2013-01-10 12:05:00,57.7,15.8,25.25,WNW,287,0.0,0.0,19,0.00,,---,0.00,VWS V14.00,2013-01-10 19:05:00,
2013-01-10 12:10:00,58.1,13.5,25.22,WNW,290,0.0,0.0,17,0.00,,---,0.00,VWS V14.00,2013-01-10 19:10:00,
2013-01-10 12:15:00,58.8,14.1,25.22,SSE,151,4.9,7.6,17,0.00,,---,0.00,VWS V14.00,2013-01-10 19:15:00,
2013-01-10 12:20:00,59.5,14.7,25.22,SE,138,6.3,8.3,17,0.00,,---,0.00,VWS V14.00,2013-01-10 19:20:00,
2013-01-10 12:25:00,59.9,15.0,25.22,ESE,117,11.0,13.2,17,0.00,,---,0.00,VWS V14.00,2013-01-10 19:25:00,
2013-01-10 12:30:00,60.1,15.1,25.22,ESE,110,6.3,6.3,17,0.00,,---,0.00,VWS V14.00,2013-01-10 19:30:00,
2013-01-10 12:36:00,60.4,18.0,25.22,East,96,8.1,10.1,19,0.00,,---,0.00,VWS V14.00,2013-01-10 19:36:00,
2013-01-10 12:41:00,60.8,18.3,25.22,South,187,8.7,8.7,19,0.00,,---,0.00,VWS V14.00,2013-01-10 19:41:00,
2013-01-10 12:46:00,61.3,14.8,25.22,SSE,158,8.7,8.7,16,0.00,,---,0.00,VWS V14.00,2013-01-10 19:46:00,
2013-01-10 12:51:00,61.9,19.2,25.22,South,190,9.2,10.5,19,0.00,,---,0.00,VWS V14.00,2013-01-10 19:51:00,
2013-01-10 12:56:00,61.9,19.2,25.19,South,175,11.9,17.4,19,0.00,,---,0.00,VWS V14.00,2013-01-10 19:56:00,
2013-01-10 13:02:00,61.7,19.0,25.19,South,191,8.3,14.5,19,0.00,,---,0.00,VWS V14.00,2013-01-10 20:02:00,
2013-01-10 13:07:00,61.9,19.2,25.19,South,175,12.8,12.8,19,0.00,,---,0.00,VWS V14.00,2013-01-10 20:07:00,
2013-01-10 13:12:00,62.1,19.3,25.19,South,183,13.2,15.4,19,0.00,,---,0.00,VWS V14.00,2013-01-10 20:12:00,
2013-01-10 13:17:00,61.9,19.2,25.19,South,170,6.3,11.0,19,0.00,,---,0.00,VWS V14.00,2013-01-10 20:17:00,
2013-01-10 13:22:00,61.9,19.2,25.19,SSE,159,8.3,8.3,19,0.00,,---,0.00,VWS V14.00,2013-01-10 20:22:00,
2013-01-10 13:27:00,61.5,18.9,25.19,SSW,198,7.6,8.7,19,0.00,,---,0.00,VWS V14.00,2013-01-10 20:27:00,
2013-01-10 13:32:00,61.3,14.8,25.19,SSE,166,10.5,11.9,16,0.00,,---,0.00,VWS V14.00,2013-01-10 20:32:00,
2013-01-10 13:37:00,61.7,19.0,25.19,SSE,164,8.7,11.0,19,0.00,,---,0.00,VWS V14.00,2013-01-10 20:37:00,
2013-01-10 13:43:00,61.5,14.9,25.19,South,180,7.2,8.1,16,0.00,,---,0.00,VWS V14.00,2013-01-10 20:43:00,
2013-01-10 13:48:00,60.8,14.4,25.19,SE,138,11.0,11.0,16,0.00,,---,0.00,VWS V14.00,2013-01-10 20:48:00,
2013-01-10 13:53:00,60.4,15.4,25.19,SSE,161,8.7,8.7,17,0.00,,---,0.00,VWS V14.00,2013-01-10 20:53:00,
2013-01-10 13:58:00,60.6,15.6,25.19,SSE,155,8.1,8.1,17,0.00,,---,0.00,VWS V14.00,2013-01-10 20:58:00,
2013-01-10 14:03:00,60.6,15.6,25.19,SSW,195,10.1,11.0,17,0.00,,---,0.00,VWS V14.00,2013-01-10 21:03:00,
2013-01-10 14:08:00,61.7,19.0,25.19,SW,214,7.2,10.1,19,0.00,,---,0.00,VWS V14.00,2013-01-10 21:08:00,
2013-01-10 14:13:00,62.1,19.3,25.19,South,187,13.2,14.5,19,0.00,,---,0.00,VWS V14.00,2013-01-10 21:13:00,
2013-01-10 14:18:00,61.7,15.1,25.19,SW,219,17.4,17.4,16,0.00,,---,0.00,VWS V14.00,2013-01-10 21:18:00,
2013-01-10 14:23:00,61.2,18.6,25.19,South,184,11.9,12.8,19,0.00,,---,0.00,VWS V14.00,2013-01-10 21:23:00,
2013-01-10 14:29:00,61.0,18.5,25.19,SSW,200,15.4,16.3,19,0.00,,---,0.00,VWS V14.00,2013-01-10 21:29:00,
2013-01-10 14:34:00,61.2,18.6,25.19,SSW,207,11.0,15.0,19,0.00,,---,0.00,VWS V14.00,2013-01-10 21:34:00,
2013-01-10 14:39:00,61.9,19.2,25.16,SSW,203,15.0,15.0,19,0.00,,---,0.00,VWS V14.00,2013-01-10 21:39:00,
2013-01-10 14:44:00,62.4,19.6,25.16,SSE,165,5.8,6.3,19,0.00,,---,0.00,VWS V14.00,2013-01-10 21:44:00,
2013-01-10 14:49:00,62.6,18.5,25.16,SSE,163,8.7,8.7,18,0.00,,---,0.00,VWS V14.00,2013-01-10 21:49:00,
2013-01-10 14:54:00,62.4,19.6,25.16,SSW,200,6.3,9.6,19,0.00,,---,0.00,VWS V14.00,2013-01-10 21:54:00,
2013-01-10 14:59:00,62.1,19.3,25.16,SSE,162,8.1,8.1,19,0.00,,---,0.00,VWS V14.00,2013-01-10 21:59:00,
2013-01-10 15:05:00,61.7,15.1,25.16,South,185,8.3,8.7,16,0.00,,---,0.00,VWS V14.00,2013-01-10 22:05:00,
2013-01-10 15:10:00,61.3,18.8,25.16,SSE,158,5.8,6.3,19,0.00,,---,0.00,VWS V14.00,2013-01-10 22:10:00,
2013-01-10 15:15:00,61.2,18.6,25.16,South,185,4.5,4.9,19,0.00,,---,0.00,VWS V14.00,2013-01-10 22:15:00,
2013-01-10 15:20:00,61.2,18.6,25.16,SW,218,5.8,5.8,19,0.00,,---,0.00,VWS V14.00,2013-01-10 22:20:00,
2013-01-10 15:25:00,61.2,18.6,25.19,WSW,240,3.1,5.4,19,0.00,,---,0.00,VWS V14.00,2013-01-10 22:25:00,
2013-01-10 15:30:00,61.0,18.5,25.19,WSW,251,2.7,3.1,19,0.00,,---,0.00,VWS V14.00,2013-01-10 22:30:00,
2013-01-10 15:35:00,60.8,14.4,25.19,WSW,252,5.8,9.6,16,0.00,,---,0.00,VWS V14.00,2013-01-10 22:35:00,
2013-01-10 15:40:00,60.6,15.6,25.19,WSW,253,6.7,7.6,17,0.00,,---,0.00,VWS V14.00,2013-01-10 22:40:00,
2013-01-10 15:45:00,60.4,15.4,25.19,West,263,8.7,12.8,17,0.00,,---,0.00,VWS V14.00,2013-01-10 22:45:00,
2013-01-10 15:51:00,60.1,15.1,25.19,WNW,283,5.8,10.5,17,0.00,,---,0.00,VWS V14.00,2013-01-10 22:51:00,
2013-01-10 15:56:00,59.7,14.9,25.19,South,184,4.5,8.3,17,0.00,,---,0.00,VWS V14.00,2013-01-10 22:56:00,
2013-01-10 16:01:00,59.4,14.6,25.19,South,189,12.8,12.8,17,0.00,,---,0.00,VWS V14.00,2013-01-10 23:01:00,
2013-01-10 16:06:00,59.5,14.7,25.19,SW,232,5.4,5.8,17,0.00,,---,0.00,VWS V14.00,2013-01-10 23:06:00,
2013-01-10 16:11:00,59.5,14.7,25.19,SSW,205,5.8,10.5,17,0.00,,---,0.00,VWS V14.00,2013-01-10 23:11:00,
2013-01-10 16:16:00,59.4,14.6,25.19,SE,129,6.3,10.1,17,0.00,,---,0.00,VWS V14.00,2013-01-10 23:16:00,
2013-01-10 16:21:00,59.4,14.6,25.19,West,263,6.3,6.3,17,0.00,,---,0.00,VWS V14.00,2013-01-10 23:21:00,
2013-01-10 16:27:00,59.2,14.4,25.19,SW,222,5.8,6.3,17,0.00,,---,0.00,VWS V14.00,2013-01-10 23:27:00,
2013-01-10 16:32:00,59.0,14.3,25.19,SW,222,12.8,16.3,17,0.00,,---,0.00,VWS V14.00,2013-01-10 23:32:00,
2013-01-10 16:37:00,58.8,14.1,25.19,SW,223,8.3,8.3,17,0.00,,---,0.00,VWS V14.00,2013-01-10 23:37:00,
2013-01-10 16:42:00,58.8,14.1,25.19,WSW,239,12.8,19.7,17,0.00,,---,0.00,VWS V14.00,2013-01-10 23:42:00,
2013-01-10 16:48:00,58.6,14.0,25.19,SW,226,15.0,15.0,17,0.00,,---,0.00,VWS V14.00,2013-01-10 23:48:00,
2013-01-10 16:53:00,58.5,13.8,25.19,SSW,199,21.9,21.9,17,0.00,,---,0.00,VWS V14.00,2013-01-10 23:53:00,
2013-01-10 16:58:00,58.3,13.7,25.19,SW,225,23.7,23.7,17,0.00,,---,0.00,VWS V14.00,2013-01-10 23:58:00,
2013-01-10 17:03:00,58.1,13.5,25.19,SSW,212,20.6,20.6,17,0.00,,---,0.00,VWS V14.00,2013-01-11 00:03:00,
2013-01-10 17:08:00,58.1,13.5,25.16,SSW,195,7.6,10.1,17,0.00,,---,0.00,VWS V14.00,2013-01-11 00:08:00,
2013-01-10 17:13:00,57.9,13.4,25.16,SW,235,14.1,14.1,17,0.00,,---,0.00,VWS V14.00,2013-01-11 00:13:00,
2013-01-10 17:18:00,57.7,13.2,25.16,SSW,199,11.9,12.8,17,0.00,,---,0.00,VWS V14.00,2013-01-11 00:18:00,
2013-01-10 17:23:00,57.9,13.4,25.16,SSW,203,10.5,13.6,17,0.00,,---,0.00,VWS V14.00,2013-01-11 00:23:00,
2013-01-10 17:29:00,57.9,13.4,25.16,SSW,211,13.2,13.2,17,0.00,,---,0.00,VWS V14.00,2013-01-11 00:29:00,
2013-01-10 17:34:00,57.7,13.2,25.16,SSW,202,15.0,15.0,17,0.00,,---,0.00,VWS V14.00,2013-01-11 00:34:00,
2013-01-10 17:39:00,57.7,13.2,25.16,South,176,22.8,22.8,17,0.00,,---,0.00,VWS V14.00,2013-01-11 00:39:00,
2013-01-10 17:44:00,57.9,13.4,25.16,South,189,15.0,15.0,17,0.00,,---,0.00,VWS V14.00,2013-01-11 00:44:00,
2013-01-10 17:49:00,57.9,13.4,25.16,South,180,11.0,17.9,17,0.00,,---,0.00,VWS V14.00,2013-01-11 00:49:00,
2013-01-10 17:54:00,57.9,13.4,25.16,South,182,13.2,19.7,17,0.00,,---,0.00,VWS V14.00,2013-01-11 00:54:00,
2013-01-10 18:00:00,57.9,13.4,25.16,South,178,15.0,15.0,17,0.00,,---,0.00,VWS V14.00,2013-01-11 01:00:00,
2013-01-10 18:05:00,57.7,13.2,25.16,SW,229,12.3,18.8,17,0.00,,---,0.00,VWS V14.00,2013-01-11 01:05:00,
2013-01-10 18:10:00,57.6,13.1,25.16,SSW,205,12.8,18.8,17,0.00,,---,0.00,VWS V14.00,2013-01-11 01:10:00,
2013-01-10 18:15:00,57.6,13.1,25.16,SSW,205,17.4,24.2,17,0.00,,---,0.00,VWS V14.00,2013-01-11 01:15:00,
2013-01-10 18:20:00,57.6,13.1,25.16,SSW,206,17.9,17.9,17,0.00,,---,0.00,VWS V14.00,2013-01-11 01:20:00,
2013-01-10 18:25:00,57.4,12.9,25.16,South,190,19.2,19.2,17,0.00,,---,0.00,VWS V14.00,2013-01-11 01:25:00,
2013-01-10 18:30:00,57.4,12.9,25.16,South,181,11.0,14.1,17,0.00,,---,0.00,VWS V14.00,2013-01-11 01:30:00,
2013-01-10 18:35:00,57.2,12.8,25.16,ESE,116,14.5,14.5,17,0.00,,---,0.00,VWS V14.00,2013-01-11 01:35:00,
2013-01-10 18:41:00,56.8,12.5,25.16,SSW,192,10.1,15.4,17,0.00,,---,0.00,VWS V14.00,2013-01-11 01:41:00,
2013-01-10 18:46:00,56.7,12.4,25.16,South,179,10.1,13.2,17,0.00,,---,0.00,VWS V14.00,2013-01-11 01:46:00,
2013-01-10 18:51:00,56.3,12.1,25.16,South,187,5.8,7.6,17,0.00,,---,0.00,VWS V14.00,2013-01-11 01:51:00,
2013-01-10 18:56:00,56.1,11.9,25.16,South,180,11.0,13.6,17,0.00,,---,0.00,VWS V14.00,2013-01-11 01:56:00,
2013-01-10 19:01:00,56.1,11.9,25.16,SSE,155,11.4,13.2,17,0.00,,---,0.00,VWS V14.00,2013-01-11 02:01:00,
2013-01-10 19:06:00,55.9,11.8,25.16,SSW,205,11.0,13.2,17,0.00,,---,0.00,VWS V14.00,2013-01-11 02:06:00,
2013-01-10 19:11:00,55.9,11.8,25.16,SSW,196,11.0,12.3,17,0.00,,---,0.00,VWS V14.00,2013-01-11 02:11:00,
2013-01-10 19:16:00,55.9,11.8,25.16,SSW,209,8.7,13.2,17,0.00,,---,0.00,VWS V14.00,2013-01-11 02:16:00,
2013-01-10 19:21:00,55.9,11.8,25.16,SSE,168,15.4,15.4,17,0.00,,---,0.00,VWS V14.00,2013-01-11 02:21:00,
2013-01-10 19:27:00,55.9,11.8,25.16,SSE,167,12.3,12.3,17,0.00,,---,0.00,VWS V14.00,2013-01-11 02:27:00,
2013-01-10 19:32:00,55.9,11.8,25.16,SSE,150,13.2,15.4,17,0.00,,---,0.00,VWS V14.00,2013-01-11 02:32:00,
2013-01-10 19:37:00,55.8,11.6,25.16,SW,229,11.4,13.2,17,0.00,,---,0.00,VWS V14.00,2013-01-11 02:37:00,
2013-01-10 19:42:00,55.6,11.5,25.13,South,182,15.0,15.4,17,0.00,,---,0.00,VWS V14.00,2013-01-11 02:42:00,
2013-01-10 19:47:00,55.4,11.3,25.13,SSE,159,10.5,15.4,17,0.00,,---,0.00,VWS V14.00,2013-01-11 02:47:00,
2013-01-10 19:52:00,55.0,12.3,25.13,South,177,15.4,16.3,18,0.00,,---,0.00,VWS V14.00,2013-01-11 02:52:00,
2013-01-10 19:57:00,54.9,12.2,25.13,ESE,111,7.6,14.1,18,0.00,,---,0.00,VWS V14.00,2013-01-11 02:57:00,
2013-01-10 20:02:00,54.7,12.0,25.13,South,174,5.8,10.1,18,0.00,,---,0.00,VWS V14.00,2013-01-11 03:02:00,
2013-01-10 20:08:00,54.5,11.9,25.13,SSE,151,7.6,10.5,18,0.00,,---,0.00,VWS V14.00,2013-01-11 03:08:00,
2013-01-10 20:13:00,54.3,11.7,25.13,South,173,10.1,15.4,18,0.00,,---,0.00,VWS V14.00,2013-01-11 03:13:00,
2013-01-10 20:18:00,54.3,11.7,25.13,SSW,205,10.1,10.1,18,0.00,,---,0.00,VWS V14.00,2013-01-11 03:18:00,
2013-01-10 20:23:00,54.0,11.4,25.13,SSE,160,12.8,15.0,18,0.00,,---,0.00,VWS V14.00,2013-01-11 03:23:00,
2013-01-10 20:28:00,54.0,11.4,25.13,WSW,238,10.5,15.0,18,0.00,,---,0.00,VWS V14.00,2013-01-11 03:28:00,
2013-01-10 20:33:00,54.0,11.4,25.13,SSW,195,10.5,12.8,18,0.00,,---,0.00,VWS V14.00,2013-01-11 03:33:00,
2013-01-10 20:38:00,53.8,11.3,25.13,South,179,15.4,16.8,18,0.00,,---,0.00,VWS V14.00,2013-01-11 03:38:00,
2013-01-10 20:43:00,53.8,11.3,25.13,South,185,16.8,16.8,18,0.00,,---,0.00,VWS V14.00,2013-01-11 03:43:00,
2013-01-10 20:49:00,53.8,11.3,25.13,South,181,13.2,15.0,18,0.00,,---,0.00,VWS V14.00,2013-01-11 03:49:00,
2013-01-10 20:54:00,53.4,11.0,25.13,South,170,12.3,12.3,18,0.00,,---,0.00,VWS V14.00,2013-01-11 03:54:00,
2013-01-10 20:59:00,53.4,11.0,25.13,SSE,165,8.3,12.8,18,0.00,,---,0.00,VWS V14.00,2013-01-11 03:59:00,
2013-01-10 21:04:00,53.2,10.9,25.13,SSE,159,11.0,12.8,18,0.00,,---,0.00,VWS V14.00,2013-01-11 04:04:00,
2013-01-10 21:09:00,53.2,10.9,25.16,South,177,13.2,13.6,18,0.00,,---,0.00,VWS V14.00,2013-01-11 04:09:00,
2013-01-10 21:14:00,53.2,10.9,25.16,South,176,11.0,13.2,18,0.00,,---,0.00,VWS V14.00,2013-01-11 04:14:00,
2013-01-10 21:20:00,53.1,10.7,25.16,SSW,204,10.5,14.1,18,0.00,,---,0.00,VWS V14.00,2013-01-11 04:20:00,
2013-01-10 21:25:00,52.9,10.6,25.16,SSW,206,8.3,12.3,18,0.00,,---,0.00,VWS V14.00,2013-01-11 04:25:00,
2013-01-10 21:30:00,52.7,10.4,25.16,SSE,161,8.1,12.3,18,0.00,,---,0.00,VWS V14.00,2013-01-11 04:30:00,
2013-01-10 21:35:00,52.7,10.4,25.16,South,178,15.4,15.4,18,0.00,,---,0.00,VWS V14.00,2013-01-11 04:35:00,
2013-01-10 21:40:00,52.7,10.4,25.16,South,172,13.2,14.1,18,0.00,,---,0.00,VWS V14.00,2013-01-11 04:40:00,
2013-01-10 21:45:00,52.5,10.2,25.16,SSW,195,8.7,8.7,18,0.00,,---,0.00,VWS V14.00,2013-01-11 04:45:00,
2013-01-10 21:50:00,52.5,10.2,25.16,SSE,157,6.7,11.0,18,0.00,,---,0.00,VWS V14.00,2013-01-11 04:50:00,
2013-01-10 21:55:00,52.5,10.2,25.13,South,181,11.9,15.4,18,0.00,,---,0.00,VWS V14.00,2013-01-11 04:55:00,
2013-01-10 22:03:00,52.7,10.4,25.13,South,188,8.7,10.5,18,0.00,,---,0.00,VWS V14.00,2013-01-11 05:03:00,
2013-01-10 22:04:00,52.7,10.4,25.13,South,185,8.7,8.7,18,0.00,,---,0.00,VWS V14.00,2013-01-11 05:04:00,
2013-01-10 22:06:00,52.7,10.4,25.13,South,181,8.7,11.9,18,0.00,,---,0.00,VWS V14.00,2013-01-11 05:06:00,
2013-01-10 22:11:00,52.5,10.2,25.13,SSE,166,7.6,12.8,18,0.00,,---,0.00,VWS V14.00,2013-01-11 05:11:00,
2013-01-10 22:16:00,52.2,10.0,25.13,SE,145,11.4,11.4,18,0.00,,---,0.00,VWS V14.00,2013-01-11 05:16:00,
2013-01-10 22:22:00,52.2,10.0,25.13,South,183,10.5,10.5,18,0.00,,---,0.00,VWS V14.00,2013-01-11 05:22:00,
2013-01-10 22:27:00,52.0,9.8,25.13,SSE,164,5.8,10.5,18,0.00,,---,0.00,VWS V14.00,2013-01-11 05:27:00,
2013-01-10 22:32:00,51.8,9.7,25.13,SSW,195,8.1,9.6,18,0.00,,---,0.00,VWS V14.00,2013-01-11 05:32:00,
2013-01-10 22:37:00,51.6,10.7,25.13,South,173,5.8,8.1,19,0.00,,---,0.00,VWS V14.00,2013-01-11 05:37:00,
2013-01-10 22:42:00,51.8,9.7,25.13,South,189,11.0,11.0,18,0.00,,---,0.00,VWS V14.00,2013-01-11 05:42:00,
2013-01-10 22:47:00,52.0,9.8,25.13,SSW,204,13.2,13.2,18,0.00,,---,0.00,VWS V14.00,2013-01-11 05:47:00,
2013-01-10 22:52:00,52.3,10.1,25.13,South,177,11.0,12.8,18,0.00,,---,0.00,VWS V14.00,2013-01-11 05:52:00,
2013-01-10 22:57:00,52.5,10.2,25.13,SSW,202,13.2,14.5,18,0.00,,---,0.00,VWS V14.00,2013-01-11 05:57:00,
2013-01-10 23:02:00,52.5,10.2,25.13,SSW,207,13.2,19.2,18,0.00,,---,0.00,VWS V14.00,2013-01-11 06:02:00,
2013-01-10 23:07:00,52.5,10.2,25.13,South,182,13.2,17.0,18,0.00,,---,0.00,VWS V14.00,2013-01-11 06:07:00,
2013-01-10 23:13:00,52.7,10.4,25.13,SSW,204,17.0,19.7,18,0.00,,---,0.00,VWS V14.00,2013-01-11 06:13:00,
2013-01-10 23:18:00,52.7,10.4,25.13,SW,218,17.4,18.3,18,0.00,,---,0.00,VWS V14.00,2013-01-11 06:18:00,
2013-01-10 23:23:00,52.5,10.2,25.13,South,183,15.9,19.2,18,0.00,,---,0.00,VWS V14.00,2013-01-11 06:23:00,
2013-01-10 23:28:00,52.5,10.2,25.13,SW,232,14.1,19.2,18,0.00,,---,0.00,VWS V14.00,2013-01-11 06:28:00,
2013-01-10 23:33:00,52.5,10.2,25.13,SSW,198,10.1,13.2,18,0.00,,---,0.00,VWS V14.00,2013-01-11 06:33:00,
2013-01-10 23:38:00,52.3,10.1,25.13,South,183,15.4,15.4,18,0.00,,---,0.00,VWS V14.00,2013-01-11 06:38:00,
2013-01-10 23:43:00,52.3,10.1,25.13,SW,216,23.3,23.3,18,0.00,,---,0.00,VWS V14.00,2013-01-11 06:43:00,
2013-01-10 23:48:00,52.3,10.1,25.13,South,187,8.3,9.2,18,0.00,,---,0.00,VWS V14.00,2013-01-11 06:48:00,
2013-01-10 23:53:00,52.0,9.8,25.13,South,188,11.0,11.0,18,0.00,,---,0.00,VWS V14.00,2013-01-11 06:53:00,
2013-01-10 23:59:00,52.0,9.8,25.13,SW,215,16.3,18.3,18,0.00,,---,0.00,VWS V14.00,2013-01-11 06:59:00,